Time;durP1;ratioP1;P1;durP2;ratioP2;P2;SDS_P1;SDS_P2;PMS_P1;PMS_P2;Temp;Humidity;BMP_temperature;BMP_pressure;BME280_temperature;BME280_humidity;BME280_pressure;Samples;Min_cycle;Max_cycle;Signal;HPM_P1;HPM_P2
2023/05/19 00:01:06;;;;;;;;;4.33;4.33;;;;;14.95;66.63;100962.94;5075456;28;46365;-74
2023/05/19 00:03:33;;;;;;;;;6.75;6.25;;;;;15.00;66.90;100964.81;5075635;28;45512;-73
2023/05/19 00:06:01;;;;;;;;;8.00;6.67;;;;;14.94;67.03;100954.19;5058466;28;45457;-73
2023/05/19 00:08:31;;;;;;;;;5.00;5.00;;;;;15.03;66.92;100975.38;5074979;28;45494;-73
2023/05/19 00:10:57;;;;;;;;;8.33;6.67;;;;;14.91;66.51;100946.22;5075689;28;45477;-73
2023/05/19 00:13:23;;;;;;;;;6.00;5.00;;;;;15.00;67.18;100958.63;5074674;28;45682;-74
2023/05/19 00:15:49;;;;;;;;;7.00;6.00;;;;;15.01;67.26;100968.31;5074213;28;45442;-73
2023/05/19 00:18:16;;;;;;;;;5.67;4.00;;;;;14.85;67.38;100949.59;5076487;28;45551;-72
2023/05/19 00:20:42;;;;;;;;;5.00;3.67;;;;;15.02;67.42;100967.44;5075655;27;45427;-73
2023/05/19 00:23:09;;;;;;;;;7.00;5.00;;;;;14.85;67.32;100939.09;5075865;28;45559;-73
2023/05/19 00:25:35;;;;;;;;;7.00;6.00;;;;;14.93;67.58;100956.78;5075021;28;45518;-73
2023/05/19 00:28:01;;;;;;;;;5.00;5.00;;;;;14.93;67.48;100962.03;5077696;28;45282;-73
2023/05/19 00:30:28;;;;;;;;;6.00;5.00;;;;;14.93;67.33;100956.78;5079048;28;45517;-72
2023/05/19 00:32:54;;;;;;;;;6.33;5.00;;;;;14.90;67.14;100953.22;5077627;28;45403;-73
2023/05/19 00:35:20;;;;;;;;;7.00;7.00;;;;;14.90;67.21;100952.31;5078828;28;45536;-72
2023/05/19 00:37:46;;;;;;;;;7.67;6.00;;;;;14.96;67.53;100962.97;5079397;28;45491;-74
2023/05/19 00:40:12;;;;;;;;;8.00;7.00;;;;;14.84;67.65;100945.22;5077508;28;46466;-74
2023/05/19 00:42:37;;;;;;;;;6.00;6.00;;;;;14.76;68.22;100938.91;5078856;28;45578;-72
2023/05/19 00:45:04;;;;;;;;;4.33;3.33;;;;;14.74;68.71;100956.41;5078443;27;46198;-73
2023/05/19 00:47:30;;;;;;;;;7.00;6.00;;;;;14.72;67.66;100947.59;5077544;28;45416;-74
2023/05/19 00:49:55;;;;;;;;;4.25;4.25;;;;;14.85;67.62;100962.75;5077283;28;45374;-73
2023/05/19 00:52:21;;;;;;;;;7.00;6.00;;;;;14.83;68.03;100967.09;5077963;28;45471;-73
2023/05/19 00:54:47;;;;;;;;;6.00;6.00;;;;;14.72;67.50;100937.06;5073573;28;45566;-72
2023/05/19 00:57:14;;;;;;;;;7.67;7.67;;;;;14.72;67.89;100931.81;5065710;28;45492;-74
2023/05/19 00:59:39;;;;;;;;;7.33;6.00;;;;;14.68;67.77;100925.63;5077828;28;45473;-73
2023/05/19 01:02:05;;;;;;;;;7.50;6.50;;;;;14.60;68.40;100924.56;5078498;27;45610;-72
2023/05/19 01:04:33;;;;;;;;;7.00;6.25;;;;;14.61;69.06;100925.47;5078758;28;45476;-73
2023/05/19 01:06:59;;;;;;;;;5.67;5.00;;;;;14.51;69.45;100948.91;5077380;28;45519;-73
2023/05/19 01:09:25;;;;;;;;;6.00;5.33;;;;;14.41;69.69;100928.56;5075963;28;45521;-73
2023/05/19 01:11:51;;;;;;;;;8.00;6.50;;;;;14.32;70.01;100921.38;5078967;27;45522;-73
2023/05/19 01:14:19;;;;;;;;;6.00;5.00;;;;;14.44;69.59;100931.25;5077952;27;45289;-74
2023/05/19 01:17:26;;;;;;;;;5.50;5.50;;;;;14.47;69.26;100928.69;5078347;28;45487;-72
2023/05/19 01:20:14;;;;;;;;;7.25;6.75;;;;;14.42;70.44;100935.56;5072641;28;45508;-72
2023/05/19 01:23:25;;;;;;;;;7.33;6.67;;;;;14.44;69.88;100931.25;5064592;28;45340;-73
2023/05/19 01:26:11;;;;;;;;;6.00;6.00;;;;;14.21;70.56;100907.13;5059323;28;45359;-72
2023/05/19 01:29:08;;;;;;;;;8.75;5.75;;;;;14.34;69.81;100913.50;5078370;28;45290;-73
2023/05/19 01:31:37;;;;;;;;;7.25;6.75;;;;;14.37;69.60;100918.84;5078165;28;45284;-72
2023/05/19 01:34:06;;;;;;;;;6.00;5.33;;;;;14.37;69.69;100915.34;5077696;27;45432;-74
2023/05/19 01:36:32;;;;;;;;;5.67;5.67;;;;;14.36;69.72;100910.91;5078414;28;45413;-72
2023/05/19 01:39:02;;;;;;;;;7.00;6.00;;;;;14.39;69.42;100911.00;5076071;28;45570;-72
2023/05/19 01:41:29;;;;;;;;;7.33;7.00;;;;;14.40;69.72;100911.00;5077435;27;47155;-73
2023/05/19 01:43:56;;;;;;;;;7.00;7.00;;;;;14.11;70.11;100864.00;5077798;28;45536;-73
2023/05/19 01:46:22;;;;;;;;;8.00;7.67;;;;;14.29;71.01;100894.16;5078081;28;46196;-72
2023/05/19 01:48:49;;;;;;;;;6.75;6.00;;;;;14.31;71.20;100913.47;5076802;28;45550;-73
2023/05/19 01:51:14;;;;;;;;;4.25;2.50;;;;;14.13;70.82;100896.44;5076063;28;45429;-73
2023/05/19 01:53:40;;;;;;;;;7.00;6.00;;;;;14.09;71.34;100891.97;5061651;28;45488;-74
2023/05/19 01:56:06;;;;;;;;;7.00;6.00;;;;;14.02;71.67;100882.19;5077006;28;45512;-74
2023/05/19 01:58:38;;;;;;;;;7.00;6.00;;;;;14.16;72.35;100908.75;5078283;28;45247;-74
2023/05/19 02:01:21;;;;;;;;;10.75;6.75;;;;;14.14;70.70;100902.59;5077711;27;45411;-73
2023/05/19 02:04:17;;;;;;;;;7.00;6.00;;;;;14.20;71.76;100899.19;5064054;28;45330;-74
2023/05/19 02:07:02;;;;;;;;;7.25;5.00;;;;;14.12;71.75;100886.81;5078018;28;45388;-72
2023/05/19 02:09:40;;;;;;;;;7.00;6.50;;;;;14.01;71.57;100867.31;5092845;27;45357;-74
2023/05/19 02:12:32;;;;;;;;;6.75;6.00;;;;;14.21;71.38;100895.72;5077586;27;46133;-74
2023/05/19 02:15:05;;;;;;;;;6.00;6.00;;;;;14.10;71.67;100867.47;5072620;28;45521;-74
2023/05/19 02:17:38;;;;;;;;;6.00;6.00;;;;;14.22;71.63;100898.38;5077607;28;45417;-72
2023/05/19 02:20:05;;;;;;;;;5.67;4.00;;;;;14.12;71.10;100878.03;5076436;28;45664;-73
2023/05/19 02:22:31;;;;;;;;;7.50;6.75;;;;;14.21;71.07;100893.97;5077446;28;46735;-74
2023/05/19 02:24:57;;;;;;;;;7.67;7.00;;;;;13.96;71.78;100850.53;5076901;28;45877;-72
2023/05/19 02:27:22;;;;;;;;;8.00;7.00;;;;;14.02;71.74;100869.06;5077777;28;45311;-72
2023/05/19 02:29:48;;;;;;;;;7.25;7.00;;;;;14.00;71.46;100881.28;5077551;28;45572;-72
2023/05/19 02:32:14;;;;;;;;;8.00;7.00;;;;;14.08;72.17;100894.56;5077792;28;46478;-74
2023/05/19 02:34:44;;;;;;;;;7.00;7.00;;;;;13.98;71.56;100872.47;5077210;28;45353;-73
2023/05/19 02:37:14;;;;;;;;;6.33;6.00;;;;;13.98;72.12;100877.72;5078017;28;45252;-72
2023/05/19 02:39:40;;;;;;;;;7.75;7.00;;;;;14.01;72.36;100867.31;5073412;28;45760;-73
2023/05/19 02:42:07;;;;;;;;;6.67;6.67;;;;;13.90;72.38;100855.66;5075849;28;46638;-72
2023/05/19 02:44:33;;;;;;;;;8.00;7.00;;;;;14.01;72.35;100877.81;5077347;28;45472;-73
2023/05/19 02:46:58;;;;;;;;;7.75;6.50;;;;;13.92;72.65;100862.72;5075692;27;45511;-74
2023/05/19 02:49:24;;;;;;;;;7.00;6.00;;;;;13.97;72.15;100865.47;5078242;28;45336;-72
2023/05/19 02:51:49;;;;;;;;;8.75;7.75;;;;;13.98;72.36;100866.34;5069875;28;45429;-72
2023/05/19 02:54:15;;;;;;;;;7.00;6.00;;;;;14.07;72.29;100887.56;5073837;28;45438;-73
2023/05/19 02:56:40;;;;;;;;;6.00;5.50;;;;;14.00;72.42;100875.13;5077499;28;45464;-73
2023/05/19 02:59:06;;;;;;;;;6.75;6.50;;;;;14.04;71.87;100877.84;5077370;28;45594;-73
2023/05/19 03:01:31;;;;;;;;;8.00;8.00;;;;;14.00;72.95;100875.13;5076111;28;45472;-73
2023/05/19 03:03:57;;;;;;;;;7.75;7.00;;;;;13.92;72.91;100861.84;5077131;27;45417;-73
2023/05/19 03:06:23;;;;;;;;;8.33;6.33;;;;;13.92;72.44;100872.34;5076662;28;45590;-72
2023/05/19 03:08:49;;;;;;;;;8.00;7.00;;;;;13.91;72.50;100866.22;5075256;28;45503;-71
2023/05/19 03:11:15;;;;;;;;;7.33;6.33;;;;;13.89;72.28;100864.41;5076217;28;46455;-74
2023/05/19 03:13:41;;;;;;;;;9.75;7.75;;;;;13.77;73.66;100858.88;5075182;28;45484;-73
2023/05/19 03:16:07;;;;;;;;;7.00;6.00;;;;;13.60;73.32;100833.16;5077437;28;45473;-73
2023/05/19 03:18:33;;;;;;;;;11.25;8.00;;;;;13.66;73.53;100840.28;5067692;28;45404;-74
2023/05/19 03:20:59;;;;;;;;;7.75;7.25;;;;;13.23;74.43;100785.06;5057099;28;45528;-73
2023/05/19 03:23:25;;;;;;;;;8.50;7.00;;;;;13.69;73.94;100866.59;5071134;28;45481;-72
2023/05/19 03:25:53;;;;;;;;;8.00;7.00;;;;;13.60;73.80;100850.63;5076600;27;45402;-74
2023/05/19 03:28:18;;;;;;;;;7.00;7.00;;;;;13.70;73.59;100866.63;5074488;28;45804;-73
2023/05/19 03:30:44;;;;;;;;;6.00;6.00;;;;;13.59;73.96;100852.38;5076060;28;45910;-72
2023/05/19 03:33:10;;;;;;;;;7.00;6.00;;;;;13.58;74.07;100870.72;5075030;28;45828;-73
2023/05/19 03:35:36;;;;;;;;;6.50;6.50;;;;;13.55;73.74;100861.03;5076176;27;45745;-74
2023/05/19 03:38:01;;;;;;;;;7.50;6.50;;;;;13.57;73.69;100854.09;5075351;28;45433;-73
2023/05/19 03:40:27;;;;;;;;;7.00;7.00;;;;;13.48;73.93;100838.13;5076454;27;45826;-74
2023/05/19 03:42:53;;;;;;;;;9.50;7.00;;;;;13.52;74.42;100850.47;5074993;28;45311;-72
2023/05/19 03:45:19;;;;;;;;;7.00;6.25;;;;;13.51;74.37;100857.47;5075297;28;45555;-73
2023/05/19 03:47:46;;;;;;;;;10.00;7.50;;;;;13.50;74.55;100863.53;5076422;28;45239;-73
2023/05/19 03:50:12;;;;;;;;;8.00;6.75;;;;;13.50;74.74;100862.66;5073919;28;46957;-73
2023/05/19 03:52:38;;;;;;;;;6.50;6.50;;;;;13.33;74.39;100847.41;5075780;28;45451;-73
2023/05/19 03:55:05;;;;;;;;;7.75;7.75;;;;;13.39;73.90;100858.91;5075954;28;45398;-72
2023/05/19 03:57:32;;;;;;;;;6.50;5.75;;;;;13.30;74.52;100854.31;5076555;28;45271;-74
2023/05/19 03:59:58;;;;;;;;;7.75;7.00;;;;;13.24;74.73;100859.41;5075418;27;46083;-72
2023/05/19 04:02:24;;;;;;;;;6.75;6.00;;;;;13.20;74.63;100855.81;5076619;28;45392;-74
2023/05/19 04:04:49;;;;;;;;;7.75;7.75;;;;;13.11;74.79;100839.84;5079549;28;45688;-73
2023/05/19 04:07:15;;;;;;;;;7.00;7.00;;;;;13.15;74.72;100862.69;5079185;28;46507;-73
2023/05/19 04:09:41;;;;;;;;;9.50;6.75;;;;;12.96;75.39;100848.22;5078937;28;46174;-73
2023/05/19 04:12:07;;;;;;;;;7.50;6.00;;;;;12.79;74.93;100826.81;5078619;28;45570;-72
2023/05/19 04:14:32;;;;;;;;;6.75;6.50;;;;;12.79;75.19;100837.28;5076356;28;45461;-72
2023/05/19 04:16:58;;;;;;;;;9.25;8.00;;;;;12.69;76.43;100836.19;5077921;28;45528;-73
2023/05/19 04:19:24;;;;;;;;;12.25;7.00;;;;;12.72;76.01;100846.75;5077522;28;46274;-72
2023/05/19 04:21:50;;;;;;;;;9.25;7.25;;;;;12.74;75.87;100852.03;5078542;28;45514;-72
2023/05/19 04:24:15;;;;;;;;;7.50;7.50;;;;;12.76;75.91;100852.09;5078732;28;45353;-73
2023/05/19 04:26:44;;;;;;;;;7.00;7.00;;;;;12.75;75.42;100848.56;5079372;28;45251;-73
2023/05/19 04:29:12;;;;;;;;;9.25;7.75;;;;;12.84;75.51;100861.91;5077219;28;46853;-73
2023/05/19 04:31:41;;;;;;;;;9.25;8.00;;;;;12.59;76.36;100842.03;5078140;28;45422;-73
2023/05/19 04:34:07;;;;;;;;;10.50;8.75;;;;;12.69;75.83;100851.94;5068338;28;45384;-73
2023/05/19 04:36:32;;;;;;;;;7.75;7.00;;;;;12.72;76.29;100848.50;5047121;28;45448;-73
2023/05/19 04:39:01;;;;;;;;;7.75;7.00;;;;;12.73;75.80;100845.91;5057693;28;46204;-73
2023/05/19 04:41:27;;;;;;;;;8.00;7.50;;;;;12.77;75.48;100843.34;5058490;28;45515;-72
2023/05/19 04:43:52;;;;;;;;;7.75;7.50;;;;;12.88;75.00;100858.50;5058111;28;45506;-73
2023/05/19 04:46:22;;;;;;;;;10.25;9.00;;;;;12.76;75.09;100825.88;5058587;28;45449;-73
2023/05/19 04:48:49;;;;;;;;;7.00;7.00;;;;;12.85;74.69;100841.81;5022089;28;45608;-73
2023/05/19 04:51:15;;;;;;;;;10.25;9.00;;;;;12.88;74.55;100839.28;5029306;28;45446;-73
2023/05/19 04:53:41;;;;;;;;;8.50;7.25;;;;;13.01;74.78;100861.44;5058558;28;45388;-73
2023/05/19 04:56:08;;;;;;;;;7.00;6.00;;;;;12.93;74.37;100846.44;5058238;28;45541;-73
2023/05/19 04:58:33;;;;;;;;;10.75;8.50;;;;;12.94;74.72;100840.31;5024592;28;46202;-74
2023/05/19 05:00:59;;;;;;;;;9.75;8.75;;;;;13.07;74.47;100865.13;5056580;28;45410;-73
2023/05/19 05:03:25;;;;;;;;;7.50;7.50;;;;;12.91;75.09;100844.59;5040238;28;45383;-73
2023/05/19 05:05:51;;;;;;;;;6.00;6.00;;;;;12.99;74.87;100866.69;5058388;28;45332;-74
2023/05/19 05:08:21;;;;;;;;;7.50;7.00;;;;;13.02;74.84;100852.75;5023878;28;46643;-74
2023/05/19 05:10:52;;;;;;;;;9.00;8.00;;;;;12.99;75.29;100848.31;5040069;28;45225;-73
2023/05/19 05:13:22;;;;;;;;;9.75;8.00;;;;;13.03;75.32;100842.28;5056657;28;45372;-74
2023/05/19 05:15:48;;;;;;;;;9.50;8.50;;;;;13.14;75.25;100868.78;5057551;28;45364;-74
2023/05/19 05:18:14;;;;;;;;;11.75;9.00;;;;;13.12;74.82;100865.22;5020294;28;47969;-74
2023/05/19 05:20:41;;;;;;;;;10.50;9.25;;;;;13.06;74.19;100846.72;5049940;28;45394;-73
2023/05/19 05:23:09;;;;;;;;;8.00;7.75;;;;;13.17;74.23;100858.38;5058122;28;45486;-74
2023/05/19 05:25:35;;;;;;;;;20.75;17.00;;;;;13.11;74.16;100835.50;5057901;28;45522;-73
2023/05/19 05:28:04;;;;;;;;;17.25;16.25;;;;;13.30;73.93;100855.22;5041568;28;46281;-74
2023/05/19 05:30:31;;;;;;;;;20.00;15.75;;;;;13.37;73.88;100850.09;5057469;28;45371;-74
2023/05/19 05:32:56;;;;;;;;;15.00;14.00;;;;;13.44;73.83;100858.16;5057751;28;45367;-74
2023/05/19 05:35:23;;;;;;;;;11.25;11.25;;;;;13.60;73.25;100866.38;5069433;28;45577;-74
2023/05/19 05:37:49;;;;;;;;;15.75;14.50;;;;;13.72;73.01;100864.03;5062343;28;45586;-74
2023/05/19 05:40:14;;;;;;;;;14.25;12.50;;;;;13.80;72.35;100861.59;5077987;28;45345;-74
2023/05/19 05:42:41;;;;;;;;;17.00;15.00;;;;;14.08;72.40;100879.69;5078386;28;45299;-74
2023/05/19 05:45:06;;;;;;;;;18.00;15.75;;;;;14.05;71.80;100850.75;5076283;28;45698;-72
2023/05/19 05:47:32;;;;;;;;;15.50;14.75;;;;;14.10;71.86;100854.34;5077093;28;46496;-73
2023/05/19 05:49:58;;;;;;;;;24.75;22.50;;;;;14.31;72.09;100874.03;5077789;28;45476;-74
2023/05/19 05:52:28;;;;;;;;;19.50;16.50;;;;;14.35;71.29;100841.69;5076652;28;45744;-72
2023/05/19 05:54:54;;;;;;;;;17.00;17.00;;;;;14.64;70.63;100854.53;5077788;28;45444;-74
2023/05/19 05:57:20;;;;;;;;;10.25;10.25;;;;;14.77;70.26;100843.38;5077400;28;45320;-74
2023/05/19 05:59:46;;;;;;;;;16.00;14.00;;;;;14.90;69.89;100832.22;5076935;28;45690;-72
2023/05/19 06:02:12;;;;;;;;;9.25;9.00;;;;;15.01;69.51;100847.28;5077035;28;45298;-74
2023/05/19 06:04:37;;;;;;;;;12.00;11.00;;;;;15.08;69.59;100851.78;5077852;28;45357;-74
2023/05/19 06:07:03;;;;;;;;;13.75;13.00;;;;;15.48;69.07;100853.31;5077277;28;46209;-72
2023/05/19 06:09:29;;;;;;;;;16.75;15.75;;;;;15.78;68.51;100849.38;5076045;28;45321;-74
2023/05/19 06:11:55;;;;;;;;;20.50;18.50;;;;;17.49;63.28;100856.38;5077441;28;45569;-74
2023/05/19 06:14:21;;;;;;;;;18.00;16.00;;;;;17.48;63.01;100851.97;5076891;28;45385;-73
2023/05/19 06:16:47;;;;;;;;;17.00;15.00;;;;;18.27;60.69;100845.34;5076521;28;45953;-74
2023/05/19 06:19:13;;;;;;;;;13.25;13.00;;;;;19.40;58.03;100838.41;5077104;28;45501;-72
2023/05/19 06:21:38;;;;;;;;;13.75;11.50;;;;;20.54;55.10;100840.63;5076944;27;45485;-72
2023/05/19 06:24:04;;;;;;;;;10.75;10.50;;;;;20.23;55.71;100851.41;5077154;28;45373;-72
2023/05/19 06:26:29;;;;;;;;;14.50;12.25;;;;;20.02;55.74;100839.16;5074799;27;45653;-73
2023/05/19 06:28:55;;;;;;;;;15.00;14.00;;;;;20.63;53.88;100835.28;5057229;28;45366;-74
2023/05/19 06:31:21;;;;;;;;;13.67;11.67;;;;;21.25;52.67;100849.84;5073313;28;45527;-74
2023/05/19 06:33:47;;;;;;;;;13.00;10.00;;;;;22.49;49.82;100835.16;5076787;28;45520;-74
2023/05/19 06:36:12;;;;;;;;;11.33;10.33;;;;;22.67;50.13;100824.22;5076149;27;46095;-74
2023/05/19 06:38:38;;;;;;;;;10.33;9.33;;;;;21.95;50.46;100841.16;5076930;28;45439;-74
2023/05/19 06:41:03;;;;;;;;;10.00;9.00;;;;;21.78;51.20;100841.34;5077139;28;45293;-74
2023/05/19 06:43:29;;;;;;;;;13.33;10.00;;;;;22.58;49.13;100832.34;5065111;28;45295;-75
2023/05/19 06:45:54;;;;;;;;;10.67;9.67;;;;;24.74;45.89;100834.47;5083720;27;45540;-74
2023/05/19 06:48:20;;;;;;;;;11.00;10.67;;;;;26.06;41.70;100769.38;5075492;28;45322;-74
2023/05/19 06:50:45;;;;;;;;;10.00;9.00;;;;;27.67;40.57;100845.41;5075492;28;45396;-75
2023/05/19 06:53:11;;;;;;;;;5.00;4.33;;;;;28.87;37.45;100832.72;5077956;28;45437;-75
2023/05/19 06:55:36;;;;;;;;;10.00;8.33;;;;;29.60;35.49;100825.16;5076757;28;45627;-75
2023/05/19 06:58:02;;;;;;;;;11.00;10.67;;;;;30.45;33.96;100847.28;5075875;28;45418;-75
2023/05/19 07:00:27;;;;;;;;;8.33;8.33;;;;;31.14;32.87;100845.72;5076676;28;45536;-75
2023/05/19 07:02:53;;;;;;;;;6.67;6.67;;;;;31.73;32.01;100838.13;5075963;28;45842;-76
2023/05/19 07:05:19;;;;;;;;;8.33;6.33;;;;;31.71;31.53;100840.03;5075219;28;45419;-75
2023/05/19 07:07:44;;;;;;;;;6.67;6.67;;;;;31.88;31.45;100842.72;5076170;28;45315;-75
2023/05/19 07:10:10;;;;;;;;;9.00;7.33;;;;;31.00;32.57;100843.72;5077557;27;45299;-72
2023/05/19 07:12:35;;;;;;;;;6.00;6.00;;;;;29.71;34.47;100850.69;5076333;27;45283;-72
2023/05/19 07:15:01;;;;;;;;;10.33;10.33;;;;;28.65;35.80;100841.72;5075954;27;46153;-73
2023/05/19 07:17:26;;;;;;;;;5.00;5.00;;;;;27.49;37.07;100842.44;5076279;28;45385;-73
2023/05/19 07:19:52;;;;;;;;;7.00;7.00;;;;;26.15;37.82;100846.78;5076474;28;46095;-74
2023/05/19 07:22:17;;;;;;;;;8.33;7.00;;;;;24.78;40.68;100853.06;5076830;28;45443;-74
2023/05/19 07:24:43;;;;;;;;;8.33;8.33;;;;;23.63;42.75;100863.47;5074599;28;46306;-74
2023/05/19 07:27:09;;;;;;;;;8.33;6.33;;;;;23.09;44.55;100859.09;5075660;28;45215;-74
2023/05/19 07:29:35;;;;;;;;;12.67;11.67;;;;;22.63;45.53;100862.44;5074610;28;45495;-74
2023/05/19 07:32:01;;;;;;;;;7.00;7.00;;;;;22.42;46.01;100871.63;5076488;28;45546;-74
2023/05/19 07:34:26;;;;;;;;;6.67;6.00;;;;;22.17;45.50;100887.88;5058405;28;46158;-74
2023/05/19 07:36:52;;;;;;;;;5.33;5.00;;;;;22.32;45.32;100868.22;5075886;28;45299;-74
2023/05/19 07:39:18;;;;;;;;;5.33;5.33;;;;;23.37;42.77;100864.81;5079838;28;45379;-73
2023/05/19 07:41:43;;;;;;;;;6.00;5.00;;;;;22.42;43.32;100879.59;5080039;28;45529;-73
2023/05/19 07:44:09;;;;;;;;;8.00;6.00;;;;;21.99;43.61;100869.50;5077418;28;45540;-73
2023/05/19 07:46:36;;;;;;;;;8.00;5.00;;;;;22.37;43.00;100882.34;5079557;28;45537;-73
2023/05/19 07:49:05;;;;;;;;;6.00;6.00;;;;;22.62;42.31;100874.91;5078235;28;45542;-73
2023/05/19 07:51:30;;;;;;;;;4.33;4.33;;;;;22.33;42.56;100872.63;5080127;28;45441;-73
2023/05/19 07:53:56;;;;;;;;;7.00;5.67;;;;;23.41;40.97;100873.66;5078173;28;46874;-74
2023/05/19 07:56:23;;;;;;;;;6.33;5.00;;;;;24.58;39.05;100866.88;5079712;28;45376;-74
2023/05/19 07:58:49;;;;;;;;;7.67;7.33;;;;;25.07;38.45;100866.59;5079905;28;45439;-74
2023/05/19 08:01:14;;;;;;;;;8.00;7.33;;;;;26.20;36.87;100857.34;5080250;28;45517;-74
2023/05/19 08:03:40;;;;;;;;;9.67;9.00;;;;;26.11;36.28;100842.44;5079135;27;45594;-74
2023/05/19 08:06:05;;;;;;;;;8.33;7.00;;;;;26.48;37.44;100869.88;5079356;28;45251;-74
2023/05/19 08:08:32;;;;;;;;;7.00;6.00;;;;;28.06;34.31;100852.97;5078133;28;45252;-75
2023/05/19 08:11:02;;;;;;;;;5.67;5.67;;;;;29.23;31.55;100849.19;5078968;28;45275;-74
2023/05/19 08:13:28;;;;;;;;;6.00;6.00;;;;;29.27;31.83;100860.69;5078262;28;46162;-74
2023/05/19 08:15:58;;;;;;;;;6.00;6.00;;;;;29.99;31.85;100846.72;5078496;27;45452;-74
2023/05/19 08:18:26;;;;;;;;;4.33;3.67;;;;;30.19;30.41;100855.72;5067750;28;45425;-74
2023/05/19 08:20:52;;;;;;;;;7.67;6.00;;;;;29.91;29.97;100862.38;5073325;28;45435;-73
2023/05/19 08:23:17;;;;;;;;;7.00;7.00;;;;;30.56;30.44;100860.25;5077907;28;46235;-74
2023/05/19 08:25:43;;;;;;;;;7.00;6.00;;;;;31.28;28.53;100855.78;5064599;28;45500;-74
2023/05/19 08:28:09;;;;;;;;;5.00;4.67;;;;;32.30;28.71;100854.84;5074947;28;45446;-74
2023/05/19 08:30:35;;;;;;;;;9.33;8.00;;;;;32.45;27.09;100852.22;5078610;28;45584;-75
2023/05/19 08:33:01;;;;;;;;;7.33;6.00;;;;;32.74;27.39;100845.16;5078425;28;45517;-73
2023/05/19 08:35:26;;;;;;;;;5.67;5.33;;;;;33.84;27.18;100836.78;5085263;27;45617;-71
2023/05/19 08:37:52;;;;;;;;;4.00;3.33;;;;;32.70;26.28;100849.88;5076891;27;45447;-71
2023/05/19 08:40:18;;;;;;;;;5.00;5.00;;;;;31.25;28.88;100843.31;5076485;27;45659;-70
2023/05/19 08:42:44;;;;;;;;;8.00;7.00;;;;;30.92;29.00;100841.41;5077498;27;45585;-71
2023/05/19 08:45:11;;;;;;;;;8.33;7.33;;;;;30.19;29.13;100840.41;5077856;27;45495;-71
2023/05/19 08:47:36;;;;;;;;;11.33;7.67;;;;;30.18;29.78;100835.94;5091051;27;45482;-71
2023/05/19 08:50:08;;;;;;;;;8.33;7.33;;;;;30.94;28.41;100838.63;5076974;28;45425;-71
2023/05/19 08:52:48;;;;;;;;;7.67;6.67;;;;;30.27;28.25;100824.75;5077788;28;46611;-71
2023/05/19 08:55:33;;;;;;;;;6.00;6.00;;;;;29.79;26.62;100834.19;5075916;28;45603;-71
2023/05/19 08:58:03;;;;;;;;;5.33;5.33;;;;;29.13;26.58;100829.88;5063721;28;45392;-71
2023/05/19 09:00:29;;;;;;;;;6.00;6.00;;;;;30.07;26.03;100811.34;5077776;28;45569;-72
2023/05/19 09:02:55;;;;;;;;;6.00;6.00;;;;;29.94;26.80;100830.78;5077973;28;45989;-71
2023/05/19 09:05:22;;;;;;;;;3.33;3.33;;;;;29.33;25.90;100812.84;5076895;28;45508;-71
2023/05/19 09:07:47;;;;;;;;;5.00;5.00;;;;;28.63;27.21;100811.34;5075956;27;45471;-71
2023/05/19 09:10:15;;;;;;;;;7.67;6.33;;;;;27.73;27.42;100810.28;5075199;28;45527;-71
2023/05/19 09:12:44;;;;;;;;;8.00;6.33;;;;;26.88;29.00;100829.34;5077383;27;45361;-71
2023/05/19 09:15:10;;;;;;;;;3.00;3.00;;;;;26.06;29.45;100816.72;5074977;28;45487;-71
2023/05/19 09:17:36;;;;;;;;;6.33;6.00;;;;;25.69;30.28;100839.19;5076498;28;45782;-71
2023/05/19 09:20:09;;;;;;;;;10.00;9.33;;;;;25.70;30.58;100840.91;5077452;28;45504;-72
2023/05/19 09:22:46;;;;;;;;;5.67;5.67;;;;;25.87;29.13;100755.69;5075985;28;47756;-71
2023/05/19 09:25:25;;;;;;;;;6.67;6.00;;;;;27.02;28.32;100834.25;5094242;27;45605;-70
2023/05/19 09:27:54;;;;;;;;;7.00;6.67;;;;;26.69;28.33;100823.69;5077597;28;45421;-71
2023/05/19 09:30:20;;;;;;;;;5.00;4.33;;;;;26.42;28.23;100825.41;5077927;27;45386;-71
2023/05/19 09:32:46;;;;;;;;;6.00;5.00;;;;;25.66;28.67;100841.91;5076390;28;46097;-71
2023/05/19 09:35:12;;;;;;;;;5.00;5.00;;;;;24.47;29.85;100844.88;5076327;28;45558;-70
2023/05/19 09:37:39;;;;;;;;;7.00;5.00;;;;;24.20;31.02;100831.19;5075939;28;45574;-71
2023/05/19 09:40:08;;;;;;;;;7.00;7.00;;;;;24.03;30.91;100820.00;5076136;28;45355;-70
2023/05/19 09:42:36;;;;;;;;;7.67;7.00;;;;;24.42;30.03;100825.38;5076706;27;46110;-71
2023/05/19 09:45:02;;;;;;;;;7.00;5.67;;;;;25.05;29.55;100826.56;5077408;28;45425;-70
2023/05/19 09:47:39;;;;;;;;;7.00;6.00;;;;;25.22;29.83;100830.63;5077346;28;45507;-70
2023/05/19 09:50:10;;;;;;;;;6.67;6.33;;;;;24.90;29.65;100832.31;5059299;28;45493;-70
2023/05/19 09:52:42;;;;;;;;;8.33;8.00;;;;;24.68;30.45;100823.94;5076903;28;45821;-70
2023/05/19 09:55:11;;;;;;;;;7.00;7.00;;;;;25.29;30.22;100816.19;5077437;27;45281;-71
2023/05/19 09:57:38;;;;;;;;;9.33;7.67;;;;;25.51;30.00;100830.72;5077292;28;45248;-71
2023/05/19 10:00:13;;;;;;;;;7.00;6.67;;;;;25.19;30.17;100840.47;5075703;28;45626;-71
2023/05/19 10:02:46;;;;;;;;;8.00;7.67;;;;;25.46;28.76;100834.44;5074890;28;45527;-71
2023/05/19 10:05:18;;;;;;;;;6.00;6.00;;;;;25.05;28.75;100834.59;5076323;28;45367;-71
2023/05/19 10:07:51;;;;;;;;;8.67;6.67;;;;;24.72;29.20;100829.16;5073690;28;45382;-70
2023/05/19 10:10:19;;;;;;;;;7.00;6.67;;;;;24.64;29.81;100825.78;5075412;28;45632;-70
2023/05/19 10:12:45;;;;;;;;;6.67;6.00;;;;;24.59;30.30;100828.59;5075925;28;45656;-70
2023/05/19 10:15:12;;;;;;;;;7.33;7.33;;;;;24.59;29.64;100822.34;5075077;28;45612;-70
2023/05/19 10:17:39;;;;;;;;;6.00;6.00;;;;;24.52;30.56;100839.44;5075508;27;45569;-70
2023/05/19 10:20:14;;;;;;;;;7.67;7.67;;;;;24.33;29.67;100826.50;5075964;28;45774;-70
2023/05/19 10:22:45;;;;;;;;;6.67;6.00;;;;;23.73;29.88;100826.81;5074825;28;45435;-70
2023/05/19 10:25:18;;;;;;;;;7.00;6.00;;;;;23.46;30.83;100830.91;5076032;27;45425;-70
2023/05/19 10:27:48;;;;;;;;;6.00;6.00;;;;;23.18;32.12;100826.09;5077075;27;45335;-70
2023/05/19 10:30:19;;;;;;;;;9.00;9.00;;;;;23.07;32.38;100812.94;5076511;27;45357;-69
2023/05/19 10:32:50;;;;;;;;;7.33;6.33;;;;;22.99;32.93;100830.81;5076442;28;46405;-71
2023/05/19 10:35:40;;;;;;;;;9.00;8.00;;;;;23.18;32.59;100834.97;5075948;28;45468;-71
2023/05/19 10:38:13;;;;;;;;;11.00;10.00;;;;;23.77;32.67;100820.53;5073859;28;45383;-70
2023/05/19 10:40:53;;;;;;;;;12.00;11.67;;;;;24.18;31.94;100816.13;5076639;28;45529;-70
2023/05/19 10:43:28;;;;;;;;;6.67;6.00;;;;;23.72;30.55;100807.28;5076753;28;45640;-70
2023/05/19 10:45:56;;;;;;;;;8.67;7.67;;;;;23.88;31.62;100807.88;5074360;28;45560;-71
2023/05/19 10:48:22;;;;;;;;;8.33;8.00;;;;;24.16;31.06;100805.50;5075398;28;45417;-70
2023/05/19 10:50:51;;;;;;;;;7.00;7.00;;;;;24.44;31.30;100786.19;5075156;28;45590;-70
2023/05/19 10:53:20;;;;;;;;;8.67;7.00;;;;;24.36;31.14;100796.16;5075383;28;46592;-70
2023/05/19 10:55:54;;;;;;;;;7.00;6.00;;;;;24.51;30.56;100813.63;5073825;28;45459;-70
2023/05/19 10:58:47;;;;;;;;;6.67;6.00;;;;;25.03;30.79;100807.03;5076410;28;45531;-71
2023/05/19 11:01:15;;;;;;;;;8.00;7.00;;;;;25.32;30.46;100802.72;5076092;28;45405;-70
2023/05/19 11:03:52;;;;;;;;;7.33;6.67;;;;;25.33;29.45;100807.19;5059871;28;45419;-71
2023/05/19 11:06:29;;;;;;;;;8.67;7.00;;;;;24.68;29.36;100795.41;5074769;28;45479;-70
2023/05/19 11:09:01;;;;;;;;;7.00;7.00;;;;;24.88;29.65;100792.25;5077066;28;45278;-71
2023/05/19 11:11:48;;;;;;;;;7.00;5.00;;;;;24.63;30.05;100770.63;5076557;28;45227;-70
2023/05/19 11:14:24;;;;;;;;;6.67;6.67;;;;;23.86;29.55;100795.50;5075104;28;45479;-70
2023/05/19 11:16:51;;;;;;;;;10.00;8.67;;;;;23.46;30.52;100806.91;5076371;28;45399;-70
2023/05/19 11:19:27;;;;;;;;;7.00;7.00;;;;;23.30;31.28;100784.97;5074789;28;45459;-70
2023/05/19 11:21:54;;;;;;;;;9.00;8.00;;;;;23.66;31.40;100799.41;5077079;28;45602;-70
2023/05/19 11:24:52;;;;;;;;;10.67;10.00;;;;;23.90;30.34;100799.84;5076449;28;46245;-70
2023/05/19 11:27:26;;;;;;;;;6.00;6.00;;;;;24.01;28.90;100787.13;5060420;28;45603;-70